Flight Track Log - Related Links

Times and Time Zones

All times are in EDT time to prevent confusion due to time zone crossing. See the N120MP flight status page for this flight to view local times or setup timezone preferences in your user account.

Time Position Orientation Groundspeed Altitude Reporting Facility
EDT Latitude Longitude Course Direction KTS MPH feet Rate Location/Type
Fri 03:09:32 PM 34.4122 -119.8372 162° South 102 117 400  Level Los Angeles Center
Fri 03:10:21 PM 34.3908 -119.8286 162° South 101 116 1,300 917 Climbing Los Angeles Center
Fri 03:10:44 PM 34.3847 -119.8253 156° South 107 123 1,500 837 Climbing Los Angeles Center
Fri 03:11:47 PM 34.3547 -119.8128 161° South 109 125 2,500 960 Climbing Los Angeles Center
Fri 03:12:49 PM 34.3242 -119.8017 163° South 112 129 3,500 1,016 Climbing Los Angeles Center
Fri 03:13:51 PM 34.2892 -119.7833 157° South 112 129 4,600 968 Climbing Los Angeles Center
Fri 03:14:53 PM 34.2822 -119.7469 103° East 124 143 5,500 871 Climbing Los Angeles Center
Fri 03:15:55 PM 34.2856 -119.7067 84° East 121 139 6,400 864 Climbing Los Angeles Center
Fri 03:16:58 PM 34.2883 -119.6689 85° East 118 136 7,300 816 Climbing Los Angeles Center
Fri 03:18:00 PM 34.2761 -119.6350 114° Southeast 117 135 8,100 823 Climbing Los Angeles Center
Fri 03:19:02 PM 34.2514 -119.5950 127° Southeast 124 143 9,000 774 Climbing Los Angeles Center
Fri 03:20:04 PM 34.2322 -119.5611 124° Southeast 124 143 9,700 581 Climbing Los Angeles Center
Fri 03:21:06 PM 34.2131 -119.5236 122° Southeast 125 144 10,200 528 Climbing Los Angeles Center
Fri 03:22:09 PM 34.1892 -119.4850 127° Southeast 140 161 10,800 480 Climbing Los Angeles Center
Fri 03:23:11 PM 34.1656 -119.4467 127° Southeast 140 161 11,200 339 Climbing Los Angeles Center
Fri 03:24:13 PM 34.1367 -119.3928 123° Southeast 158 182 11,500 145 Climbing Los Angeles Center
Fri 03:25:15 PM 34.1100 -119.3436 123° Southeast 172 198 11,500  Level Los Angeles Center
Fri 03:26:17 PM 34.0828 -119.2919 122° Southeast 178 205 11,500  Level Los Angeles Center
Fri 03:27:19 PM 34.0553 -119.2425 124° Southeast 179 206 11,500  Level Los Angeles Center
Fri 03:28:22 PM 34.0250 -119.1925 126° Southeast 181 208 11,500  Level Los Angeles Center
Fri 03:29:24 PM 33.9961 -119.1428 125° Southeast 182 209 11,500  Level Los Angeles Center
Fri 03:30:26 PM 33.9625 -119.0831 124° Southeast 181 208 11,500  Level Los Angeles Center
Fri 03:31:28 PM 33.9344 -119.0342 125° Southeast 181 208 11,500  Level Los Angeles Center
Fri 03:32:30 PM 33.9064 -118.9844 124° Southeast 181 208 11,500  Level Los Angeles Center
Fri 03:33:32 PM 33.8775 -118.9358 126° Southeast 180 207 11,500  Level Los Angeles Center
Fri 03:34:35 PM 33.8489 -118.8858 125° Southeast 180 207 11,500  Level Los Angeles Center
Fri 03:35:37 PM 33.8144 -118.8261 125° Southeast 181 208 11,500  Level Los Angeles Center
Fri 03:36:39 PM 33.7853 -118.7767 125° Southeast 181 208 11,500  Level Los Angeles Center
Fri 03:37:41 PM 33.7564 -118.7261 124° Southeast 182 209 11,500  Level Los Angeles Center
Fri 03:38:43 PM 33.7272 -118.6769 125° Southeast 182 209 11,500  Level Los Angeles Center
Fri 03:39:45 PM 33.6981 -118.6272 125° Southeast 182 209 11,500  Level Los Angeles Center
Fri 03:40:48 PM 33.6636 -118.5672 125° Southeast 182 209 11,500  Level Los Angeles Center
Fri 03:41:50 PM 33.6344 -118.5183 126° Southeast 182 209 11,500  Level Los Angeles Center
Fri 03:42:52 PM 33.6058 -118.4686 125° Southeast 182 209 11,500  Level Los Angeles Center
Fri 03:43:54 PM 33.5761 -118.4194 126° Southeast 182 209 11,500  Level Los Angeles Center
Fri 03:44:56 PM 33.5475 -118.3697 125° Southeast 182 209 11,500  Level Los Angeles Center
Fri 03:45:58 PM 33.5128 -118.3103 125° Southeast 182 209 11,500  Level Los Angeles Center
Fri 03:47:01 PM 33.4842 -118.2611 125° Southeast 182 209 11,500  Level Los Angeles Center
Fri 03:48:03 PM 33.4517 -118.2067 126° Southeast 182 209 11,500  Level Los Angeles Center
Fri 03:49:05 PM 33.4258 -118.1628 125° Southeast 182 209 11,500  Level Los Angeles Center
Fri 03:50:07 PM 33.3975 -118.1133 124° Southeast 182 209 11,500  Level Los Angeles Center
Fri 03:51:09 PM 33.3628 -118.0553 126° Southeast 182 209 11,500 -194 Level Los Angeles Center
Fri 03:52:11 PM 33.3328 -118.0056 126° Southeast 182 209 11,100 -384 Descending Los Angeles Center
Fri 03:53:14 PM 33.3022 -117.9522 124° Southeast 188 216 10,700 -288 Descending Los Angeles Center
Fri 03:54:16 PM 33.2719 -117.9003 125° Southeast 192 221 10,500 -97 Descending Los Angeles Center
Fri 03:55:18 PM 33.2428 -117.8489 124° Southeast 191 220 10,500  Level Los Angeles Center
Fri 03:56:20 PM 33.2139 -117.8006 126° Southeast 184 212 10,500 -242 Level Los Angeles Center
Fri 03:57:22 PM 33.1772 -117.7414 127° Southeast 184 212 10,000 -484 Descending Los Angeles Center
Fri 03:58:24 PM 33.1447 -117.6875 126° Southeast 195 224 9,500 -432 Descending Los Angeles Center
Fri 03:59:27 PM 33.1142 -117.6333 124° Southeast 198 228 9,100 -384 Descending Los Angeles Center
Fri 04:00:29 PM 33.0817 -117.5822 127° Southeast 196 226 8,700 -387 Descending Los Angeles Center
Fri 04:01:31 PM 33.0497 -117.5311 127° Southeast 196 226 8,300 -435 Descending Los Angeles Center
Fri 04:02:33 PM 33.0039 -117.4778 136° Southeast 192 221 7,800 -774 Descending Los Angeles Center
Fri 04:03:35 PM 32.9636 -117.4331 137° Southeast 194 223 6,700 -1,104 Descending Los Angeles Center
Fri 04:04:38 PM 32.9203 -117.3875 139° Southeast 203 234 5,500 -1,176 Descending Los Angeles Center
Fri 04:05:17 PM 32.9000 -117.3500 123° Southeast 195 224 4,700 -823 Descending Southern California TRACON
Fri 04:06:42 PM 32.8422 -117.2881 138° Southeast 196 226 3,800 -635 Descending Los Angeles Center

Login

Don't have an account? Register now (free) for customized features, flight alerts, and more!